Time;durP1;ratioP1;P1;durP2;ratioP2;P2;SDS_P1;SDS_P2;PMS_P1;PMS_P2;Temp;Humidity;BMP_temperature;BMP_pressure;BME280_temperature;BME280_humidity;BME280_pressure;Samples;Min_cycle;Max_cycle;Signal;HPM_P1;HPM_P2
2021/10/16 00:06:41;;;;;;;7.13;3.72;;;16.20;51.00;;;;;;20891570;27;81025;-75
2021/10/16 00:16:43;;;;;;;8.40;3.03;;;16.00;51.10;;;;;;20889582;28;82164;-73
2021/10/16 00:26:46;;;;;;;8.15;3.78;;;15.90;51.20;;;;;;20889913;27;82208;-73
2021/10/16 00:36:48;;;;;;;4.70;3.00;;;15.70;51.30;;;;;;20887941;28;82101;-75
2021/10/16 00:46:52;;;;;;;9.63;3.35;;;15.60;50.90;;;;;;20888473;27;80071;-75
2021/10/16 00:56:58;;;;;;;3.85;2.58;;;15.40;50.40;;;;;;20887904;27;80067;-73
2021/10/16 01:07:01;;;;;;;11.10;3.97;;;15.40;51.10;;;;;;20886391;27;82038;-72
2021/10/16 01:17:04;;;;;;;4.93;3.23;;;15.40;51.50;;;;;;20887539;27;82342;-72
2021/10/16 01:27:08;;;;;;;11.90;3.60;;;15.20;51.80;;;;;;20886373;27;81152;-71
2021/10/16 01:37:13;;;;;;;10.10;3.47;;;15.10;52.10;;;;;;20886183;27;79871;-72
2021/10/16 01:47:16;;;;;;;;;;;15.00;52.70;;;;;;20886928;27;81124;-72
2021/10/16 01:57:19;;;;;;;5.75;3.30;;;14.80;53.30;;;;;;20907099;28;81103;-72
2021/10/16 02:07:22;;;;;;;8.85;3.97;;;14.60;53.70;;;;;;20883753;28;80706;-74
2021/10/16 02:17:24;;;;;;;7.30;3.95;;;14.40;53.90;;;;;;20889994;27;80776;-73
2021/10/16 02:27:27;;;;;;;5.13;3.10;;;14.20;54.60;;;;;;20897713;27;80882;-73
2021/10/16 02:37:32;;;;;;;6.60;3.33;;;14.00;55.00;;;;;;20897765;27;82204;-73
2021/10/16 02:47:36;;;;;;;7.15;3.63;;;13.80;55.30;;;;;;20896034;28;81719;-74
2021/10/16 02:57:39;;;;;;;7.93;3.50;;;13.60;55.40;;;;;;20896674;27;82132;-72
2021/10/16 03:07:41;;;;;;;7.47;3.00;;;13.50;55.60;;;;;;20894194;28;81134;-73
2021/10/16 03:17:46;;;;;;;6.18;3.28;;;13.40;55.60;;;;;;20895029;27;80920;-71
2021/10/16 03:27:48;;;;;;;11.87;4.27;;;13.30;55.80;;;;;;20892773;27;80927;-72
2021/10/16 03:37:51;;;;;;;7.57;3.38;;;13.30;55.80;;;;;;20894267;27;80628;-72
2021/10/16 03:47:56;;;;;;;8.18;3.47;;;13.30;55.90;;;;;;20891417;28;80993;-73
2021/10/16 03:58:00;;;;;;;8.70;3.75;;;13.10;56.30;;;;;;20890413;28;81920;-73
2021/10/16 04:08:02;;;;;;;6.82;2.80;;;13.00;56.50;;;;;;20890436;28;81649;-73
2021/10/16 04:18:05;;;;;;;4.77;3.17;;;13.00;56.50;;;;;;20892114;27;82105;-72
2021/10/16 04:28:08;;;;;;;7.47;3.37;;;12.80;56.70;;;;;;20890258;27;80983;-73
2021/10/16 04:38:11;;;;;;;7.72;2.95;;;12.70;56.90;;;;;;20889521;27;80603;-71
2021/10/16 04:48:15;;;;;;;6.97;3.40;;;12.90;56.50;;;;;;20889127;27;80720;-73
2021/10/16 04:58:18;;;;;;;6.23;2.60;;;12.80;56.80;;;;;;20877123;28;81557;-74
2021/10/16 05:08:20;;;;;;;5.22;2.80;;;12.70;56.80;;;;;;20871941;28;81341;-73
2021/10/16 05:18:23;;;;;;;4.75;2.78;;;12.70;56.70;;;;;;20867045;27;81687;-72
2021/10/16 05:28:25;;;;;;;7.93;3.50;;;12.80;56.30;;;;;;20872209;28;81839;-72
2021/10/16 05:38:28;;;;;;;7.90;3.10;;;12.80;56.00;;;;;;20873486;28;81894;-72
2021/10/16 05:48:30;;;;;;;5.57;2.92;;;12.80;55.80;;;;;;20871839;27;82687;-73
2021/10/16 05:58:32;;;;;;;8.43;2.97;;;12.80;55.70;;;;;;20872162;28;81870;-72
2021/10/16 06:08:33;;;;;;;8.20;3.00;;;12.90;55.80;;;;;;20872504;27;81549;-72
2021/10/16 06:18:35;;;;;;;8.68;3.03;;;13.00;55.40;;;;;;20867491;28;80979;-71
2021/10/16 06:28:38;;;;;;;8.73;2.97;;;13.10;55.30;;;;;;20871222;27;81621;-66
2021/10/16 06:38:41;;;;;;;8.27;3.53;;;13.10;55.20;;;;;;20869405;28;81821;-65
2021/10/16 06:48:44;;;;;;;11.15;4.15;;;13.20;55.30;;;;;;20869038;27;81046;-65
2021/10/16 06:58:48;;;;;;;9.80;3.78;;;13.40;55.00;;;;;;20864275;27;82292;-65
2021/10/16 07:08:51;;;;;;;6.15;3.33;;;13.60;54.70;;;;;;20873316;27;82339;-65
2021/10/16 07:18:53;;;;;;;9.02;3.50;;;13.80;54.00;;;;;;20881621;27;82790;-65
2021/10/16 07:28:56;;;;;;;9.23;4.55;;;14.10;53.30;;;;;;20881767;27;82085;-66
2021/10/16 07:38:59;;;;;;;;;;;14.40;52.70;;;;;;20881019;28;81944;-66
2021/10/16 07:49:02;;;;;;;10.48;3.85;;;14.60;52.60;;;;;;20903944;27;80601;-65
2021/10/16 07:59:05;;;;;;;;;;;14.90;51.30;;;;;;20879789;27;81278;-66
2021/10/16 08:09:07;;;;;;;6.85;4.00;;;15.50;50.30;;;;;;20894769;28;79269;-66
2021/10/16 08:19:09;;;;;;;10.05;3.83;;;15.90;48.90;;;;;;20875769;27;81279;-66
2021/10/16 08:29:11;;;;;;;8.98;3.72;;;16.20;48.30;;;;;;20877711;27;82011;-67
2021/10/16 08:39:13;;;;;;;10.68;4.95;;;16.70;46.90;;;;;;20877552;27;80867;-67
2021/10/16 08:49:15;;;;;;;10.87;4.73;;;17.00;46.50;;;;;;20870512;28;81826;-67
2021/10/16 08:59:17;;;;;;;12.88;4.68;;;17.70;45.10;;;;;;20873946;28;81359;-67
2021/10/16 09:09:31;;;;;;;14.17;5.20;;;18.40;43.90;;;;;;20873391;28;81270;-67
2021/10/16 09:19:35;;;;;;;10.95;4.90;;;19.40;41.70;;;;;;20868315;27;81855;-65
2021/10/16 09:29:52;;;;;;;12.82;4.70;;;19.50;41.30;;;;;;20864845;27;80822;-65
2021/10/16 09:39:59;;;;;;;9.30;4.60;;;19.70;41.10;;;;;;20874239;28;81342;-65
2021/10/16 09:50:09;;;;;;;7.88;3.60;;;20.20;40.10;;;;;;20874277;28;81574;-67
2021/10/16 10:00:14;;;;;;;10.07;3.67;;;20.50;39.30;;;;;;20873518;28;81982;-64
2021/10/16 10:10:16;;;;;;;9.52;3.47;;;20.20;40.50;;;;;;20873980;27;80733;-68
2021/10/16 10:20:19;;;;;;;10.47;3.97;;;20.10;40.70;;;;;;20886191;27;81936;-67
2021/10/16 10:30:36;;;;;;;6.65;3.70;;;20.20;40.40;;;;;;20883148;28;81839;-66
2021/10/16 10:40:39;;;;;;;10.48;3.92;;;20.90;39.60;;;;;;20876065;27;81862;-66
2021/10/16 10:50:59;;;;;;;7.82;4.35;;;21.80;38.10;;;;;;20889153;27;80785;-68
2021/10/16 11:01:01;;;;;;;8.40;4.10;;;22.50;37.40;;;;;;20889493;28;80579;-65
2021/10/16 11:11:03;;;;;;;6.72;4.63;;;22.30;37.50;;;;;;20895534;27;82352;-66
2021/10/16 11:21:11;;;;;;;9.00;4.00;;;24.30;34.20;;;;;;20895721;27;81852;-65
2021/10/16 11:31:12;;;;;;;8.77;4.68;;;25.40;32.90;;;;;;20895254;27;81289;-66
2021/10/16 11:41:15;;;;;;;16.73;5.03;;;25.90;31.80;;;;;;20894755;27;80039;-66
2021/10/16 11:51:16;;;;;;;7.57;4.63;;;27.50;29.80;;;;;;20892440;27;81883;-66
2021/10/16 12:01:18;;;;;;;12.43;4.57;;;27.70;29.70;;;;;;20894001;27;80534;-66
2021/10/16 12:11:30;;;;;;;8.55;4.72;;;26.50;31.30;;;;;;20893436;27;80826;-68
2021/10/16 12:21:36;;;;;;;10.15;4.18;;;26.00;32.50;;;;;;20893108;27;81824;-67
2021/10/16 12:31:51;;;;;;;7.93;4.32;;;24.90;33.10;;;;;;20890890;28;81668;-65
2021/10/16 12:41:54;;;;;;;12.90;4.97;;;24.60;33.60;;;;;;20891251;27;80759;-67
2021/10/16 12:52:00;;;;;;;14.73;5.45;;;24.60;33.60;;;;;;20888815;28;80659;-66
2021/10/16 13:02:02;;;;;;;14.63;5.45;;;26.00;31.60;;;;;;20887646;27;81806;-65
2021/10/16 13:12:04;;;;;;;;;;;26.40;31.60;;;;;;20889701;27;81815;-65
2021/10/16 13:22:06;;;;;;;9.88;5.05;;;27.00;31.10;;;;;;20910343;27;81886;-66
2021/10/16 13:32:11;;;;;;;7.30;5.10;;;27.30;30.60;;;;;;20886808;28;79849;-67
2021/10/16 13:42:13;;;;;;;11.35;5.07;;;26.50;31.10;;;;;;20886488;28;80680;-66
2021/10/16 13:52:14;;;;;;;8.85;4.55;;;25.90;31.80;;;;;;20886460;27;80564;-66
2021/10/16 14:02:17;;;;;;;11.20;4.53;;;25.20;32.60;;;;;;20887035;27;80842;-66
2021/10/16 14:12:18;;;;;;;6.65;3.75;;;25.00;33.40;;;;;;20884847;27;82254;-66
2021/10/16 14:22:22;;;;;;;16.20;4.80;;;24.80;33.70;;;;;;20884253;27;80951;-66
2021/10/16 14:32:24;;;;;;;10.25;4.35;;;24.90;34.30;;;;;;20883343;28;81940;-66
2021/10/16 14:42:27;;;;;;;9.50;4.07;;;24.50;34.20;;;;;;20883204;27;81094;-66
2021/10/16 14:52:30;;;;;;;11.38;4.95;;;24.40;34.90;;;;;;20881922;28;82006;-66
2021/10/16 15:02:35;;;;;;;11.23;3.85;;;24.10;34.70;;;;;;20883098;27;80756;-65
2021/10/16 15:12:38;;;;;;;11.93;4.15;;;23.70;35.80;;;;;;20881629;28;81819;-65
2021/10/16 15:22:39;;;;;;;5.47;3.03;;;23.30;36.00;;;;;;20882361;27;82071;-65
2021/10/16 15:32:41;;;;;;;8.02;4.35;;;22.90;35.90;;;;;;20895339;27;80654;-65
2021/10/16 15:42:43;;;;;;;13.90;3.73;;;22.70;36.50;;;;;;20895910;27;81824;-65
2021/10/16 15:52:45;;;;;;;8.18;3.95;;;22.60;36.50;;;;;;20893520;27;80845;-65
2021/10/16 16:02:46;;;;;;;17.38;4.10;;;22.40;36.90;;;;;;20894573;27;79905;-66
2021/10/16 16:12:48;;;;;;;11.02;4.57;;;22.20;37.10;;;;;;20892351;28;80737;-67
2021/10/16 16:22:50;;;;;;;8.57;4.43;;;22.10;36.90;;;;;;20892352;27;80763;-67
2021/10/16 16:32:52;;;;;;;9.77;4.53;;;22.00;39.30;;;;;;20887666;27;80849;-66
2021/10/16 16:42:54;;;;;;;;;;;21.90;40.60;;;;;;20892333;27;80622;-65
2021/10/16 16:52:55;;;;;;;11.75;5.07;;;21.80;40.70;;;;;;20912203;27;80610;-65
2021/10/16 17:02:59;;;;;;;9.73;4.50;;;21.60;41.40;;;;;;20887904;28;80081;-65
2021/10/16 17:13:01;;;;;;;16.73;6.03;;;21.40;42.30;;;;;;20882398;27;81701;-65
2021/10/16 17:23:02;;;;;;;10.30;6.17;;;21.10;43.30;;;;;;20879921;27;82005;-64
2021/10/16 17:33:04;;;;;;;19.43;5.50;;;20.80;44.40;;;;;;20880758;28;81782;-74
2021/10/16 17:43:06;;;;;;;12.13;6.20;;;20.50;44.80;;;;;;20882347;27;81620;-74
2021/10/16 17:53:09;;;;;;;14.63;6.93;;;20.40;44.40;;;;;;20884706;27;81979;-72
2021/10/16 18:03:13;;;;;;;19.60;7.55;;;20.20;45.30;;;;;;20867473;28;80619;-71
2021/10/16 18:13:15;;;;;;;18.57;8.60;;;20.00;46.10;;;;;;20883052;27;81837;-75
2021/10/16 18:23:17;;;;;;;13.07;7.67;;;19.90;46.90;;;;;;20883026;28;82229;-73
2021/10/16 18:33:19;;;;;;;22.37;8.43;;;19.70;46.80;;;;;;20882903;28;81796;-74
2021/10/16 18:43:22;;;;;;;20.23;7.60;;;19.60;47.60;;;;;;20882314;27;80005;-71
2021/10/16 18:53:25;;;;;;;22.27;8.03;;;19.50;47.70;;;;;;20880781;27;80969;-71
2021/10/16 19:03:27;;;;;;;18.50;8.60;;;19.50;48.00;;;;;;20891504;27;80690;-72
2021/10/16 19:13:29;;;;;;;18.55;8.55;;;19.40;48.40;;;;;;20895725;27;81934;-71
2021/10/16 19:23:32;;;;;;;;;;;19.40;49.00;;;;;;20894603;27;81596;-74
2021/10/16 19:33:34;;;;;;;26.45;10.52;;;19.40;49.40;;;;;;20916361;28;81890;-74
2021/10/16 19:43:36;;;;;;;18.90;10.57;;;19.30;49.70;;;;;;20882218;28;82704;-73
2021/10/16 19:53:38;;;;;;;23.93;9.97;;;19.30;50.20;;;;;;20881476;28;84370;-74
2021/10/16 20:03:41;;;;;;;19.08;9.32;;;19.30;49.90;;;;;;20882015;27;84463;-73
2021/10/16 20:13:46;;;;;;;20.88;9.57;;;19.20;50.30;;;;;;20890787;27;84565;-76
2021/10/16 20:23:48;;;;;;;26.88;9.43;;;19.20;50.90;;;;;;20892295;27;82097;-74
2021/10/16 20:33:51;;;;;;;25.03;10.10;;;19.10;51.80;;;;;;20890142;28;81021;-73
2021/10/16 20:43:53;;;;;;;27.60;10.17;;;19.00;51.90;;;;;;20880281;27;82854;-74
2021/10/16 20:53:55;;;;;;;18.13;7.37;;;19.00;51.70;;;;;;20878766;27;84203;-76
2021/10/16 21:03:57;;;;;;;18.80;8.37;;;19.00;51.00;;;;;;20877932;27;84926;-74
2021/10/16 21:13:59;;;;;;;20.47;8.53;;;18.90;51.20;;;;;;20805764;28;82036;-74
2021/10/16 21:24:01;;;;;;;25.80;7.63;;;18.90;52.00;;;;;;20803678;28;80947;-75
2021/10/16 21:34:04;;;;;;;23.47;9.63;;;18.80;53.20;;;;;;20803112;28;80594;-72
2021/10/16 21:44:08;;;;;;;17.73;9.25;;;18.70;54.80;;;;;;20803472;28;80459;-72
2021/10/16 21:54:10;;;;;;;23.98;7.88;;;18.60;55.80;;;;;;20801953;28;81914;-73
2021/10/16 22:04:12;;;;;;;18.70;8.30;;;18.60;56.10;;;;;;20803268;28;81893;-75
2021/10/16 22:14:13;;;;;;;25.77;12.00;;;18.50;56.00;;;;;;20800884;28;81869;-74
2021/10/16 22:24:15;;;;;;;16.73;7.57;;;18.50;55.40;;;;;;20791034;28;82535;-75
2021/10/16 22:34:18;;;;;;;12.97;6.40;;;18.60;54.70;;;;;;20805021;28;83740;-75
2021/10/16 22:44:20;;;;;;;8.55;6.03;;;18.50;54.60;;;;;;20812982;28;81881;-72
2021/10/16 22:54:23;;;;;;;10.77;6.30;;;18.60;54.10;;;;;;20813281;28;81221;-72
2021/10/16 23:04:25;;;;;;;11.60;5.93;;;18.60;54.50;;;;;;20813453;28;81850;-75
2021/10/16 23:14:27;;;;;;;10.53;5.70;;;18.50;55.30;;;;;;20811961;28;81835;-75
2021/10/16 23:24:29;;;;;;;15.47;6.83;;;18.40;56.10;;;;;;20810486;28;81724;-75
2021/10/16 23:34:31;;;;;;;13.23;6.57;;;18.40;55.80;;;;;;20809893;28;81335;-74
2021/10/16 23:44:33;;;;;;;11.13;7.13;;;18.30;56.30;;;;;;20809309;28;81857;-72
2021/10/16 23:54:36;;;;;;;14.20;6.87;;;18.30;57.00;;;;;;20807728;28;81809;-71
